Carolina, PR (00988)

5:28 PM AST on October 20, 2014 (GMT -0400)
Manejo de Emergencias | Change Station
CLOSE
Current Station
Personal Weather Station
Location: Carolina, PR
Elevation: 40 ft
Nearby Weather Stations

Elev 40 ft 18.38 °N, 65.97 °W | Updated 4 minutes ago

Mostly Cloudy
Mostly Cloudy
83.3 °F
Feels Like 92 °F
N
5.0
Wind Variable Wind from East
Gusts 10.0 mph

Today
High -- | Low -- °F
--% Chance of Precip.
Yesterday
High -- | Low -- °F
Precip. -- in
6:19 AM 5:57 PM
Waning Crescent, 9% visible
Pressure 29.91 in
Visibility 10.0 miles
Clouds Scattered Clouds 3300 ft
Scattered Clouds 5000 ft
Mostly Cloudy 7500 ft
Heat Index 92 °F
Dew Point 76 °F
Humidity 79%
Rainfall -999.00 in
Snow Depth Not available.
UV 0 out of 12
Pollen Not available.
Air Quality Not available.
Flu Activity Local Activity
METAR TJSJ 202056Z 07007KT 10SM SCT033 SCT050 BKN075 28/26 A2991 RMK AO2 RAB29E49 SLP128 VCSH S SW P0012 60012 T02780256 55005

More Conditions Fewer Conditions

Pressure 29.91 in
Visibility 10.0 miles
Clouds Scattered Clouds 3300 ft
Scattered Clouds 5000 ft
Mostly Cloudy 7500 ft
Heat Index 92 °F
Dew Point 76 °F
Humidity 79%
Rainfall -999.00 in
Snow Depth Not available.
UV 0 out of 12
Pollen Not available.
Air Quality Not available.
Flu Activity Local Activity
METAR TJSJ 202056Z 07007KT 10SM SCT033 SCT050 BKN075 28/26 A2991 RMK AO2 RAB29E49 SLP128 VCSH S SW P0012 60012 T02780256 55005

More Conditions Fewer Conditions

10-Day Weather Forecast

Almanac

Astronomy

Oct. 20, 2014 Rise Set
Actual Time 6:19 AM AST 5:57 PM AST
Civil Twilight 5:57 AM AST 6:20 PM AST
Nautical Twilight 5:31 AM AST 6:45 PM AST
Astronomical Twilight 5:06 AM AST 7:11 PM AST
Moon 3:30 AM AST 3:56 PM AST
Length of Visible Light 12h 23m
Length of Day
11h 38m
Waning Crescent, 9% of the Moon is Illuminated
Today
Waning Crescent
Oct 23
New
Oct 30
First Quarter
Nov 6
Full
Nov 14
Last Quarter

Community

WunderPhotos

Upload Photos

1,763,522 photos uploaded!

WunderBlogs® & News

Nearby

Snow Depth

Station Depth Elevation
No new snow has been reported.

Earthquake Activity

City Distance Mag. Time & Date
No recent earthquake activity has been reported nearby.
Minimum magnitude displayed is 2.5.

Coastal Water Temperatures

Place Temperature
San Juan, PR 87.1 °F
Mayaguez, PR 87.1 °F
Esperanza, PR 84.9 °F

Nearby Weather Stations